Pagina principală
METAR-TAF:

METAR-TAF

Aeroporturi :

Manihiki, Insulele Cook

Latitudine: 10-22-50S, longitudine: 160-59-59W, elevație: 2 m

Observații meteo curente

Raportul a fost făcut în urmă cu 1 oră și 24 de minute, la 16:00 UTC
Vânt 4 kt de la Est/Sud-est
Temperatură 29°C
Umiditate 84%
Presiune 1009 hPa

METAR: NCMH 211600Z AUTO 11004KT //// ////// 29/26 Q1009

Ora: 07:24 (17:24 UTC)


TAF: lipsă

Observații și prognoze meteo pentru peste 4.000 de aeroporturi (rapoarte METAR și TAF).

Stațiile disponibile sunt reprezentate pe hartă prin puncte galbene și roșii.

Țineți indicatorul mouse-ului pe punctul dorit pentru a vedea denumirea stației.

Apoi, faceți clic pentru a vedea observațiile și prognozele meteorologice.

Pentru a schimba harta: Pentru mărire, faceți clic pe butoanele verzi cu cruce neagră; pentru micșorare, pe butonul verde cu o liniuță; pentru hărți învecinate, pe săgețile verzi.


METAR-TAF: